createdAt,value
2023-02-15T00:01:56.845Z,0.99
2023-02-15T00:04:00.916Z,0.94
2023-02-15T00:06:03.677Z,0.87
2023-02-15T00:08:06.463Z,0.90
2023-02-15T00:10:09.807Z,0.88
2023-02-15T00:12:12.529Z,0.80
2023-02-15T00:14:18.143Z,0.86
2023-02-15T00:16:20.742Z,1.02
2023-02-15T00:18:23.365Z,0.94
2023-02-15T00:20:27.400Z,1.01
2023-02-15T00:22:29.994Z,0.86
2023-02-15T00:24:32.670Z,0.85
2023-02-15T00:26:35.833Z,0.77
2023-02-15T00:28:38.794Z,0.98
2023-02-15T00:30:41.441Z,0.92
2023-02-15T00:32:44.090Z,0.94
2023-02-15T00:34:46.721Z,0.79
2023-02-15T00:36:51.083Z,0.73
2023-02-15T00:38:53.787Z,0.69
2023-02-15T00:40:57.077Z,0.79
2023-02-15T00:43:00.575Z,0.74
2023-02-15T00:45:03.232Z,0.77
2023-02-15T00:47:05.934Z,0.73
2023-02-15T00:49:08.798Z,0.84
2023-02-15T00:51:11.471Z,0.74
2023-02-15T00:53:15.429Z,0.74
2023-02-15T00:55:18.428Z,0.70
2023-02-15T00:57:21.247Z,0.77
2023-02-15T00:59:23.904Z,0.66
2023-02-15T01:01:26.787Z,0.77
2023-02-15T01:03:29.511Z,0.65
2023-02-15T01:05:32.334Z,0.62
2023-02-15T01:07:35.044Z,0.65
2023-02-15T01:09:39.112Z,0.75
2023-02-15T01:11:41.818Z,0.65
2023-02-15T01:13:44.453Z,0.70
2023-02-15T01:15:47.119Z,0.70
2023-02-15T01:17:53.601Z,0.63
2023-02-15T01:19:56.320Z,0.67
2023-02-15T01:21:58.949Z,0.71
2023-02-15T01:24:01.693Z,0.61
2023-02-15T01:26:05.871Z,0.70
2023-02-15T01:28:08.755Z,0.65
2023-02-15T01:30:12.556Z,0.73
2023-02-15T01:32:15.298Z,0.71
2023-02-15T01:34:17.959Z,0.63
2023-02-15T01:36:20.686Z,0.47
2023-02-15T01:38:23.376Z,0.50
2023-02-15T01:40:26.842Z,0.38
2023-02-15T01:42:32.797Z,0.41
2023-02-15T01:44:53.590Z,0.44
2023-02-15T01:46:56.332Z,0.36
2023-02-15T01:49:05.357Z,0.41
2023-02-15T01:51:08.488Z,0.40
2023-02-15T01:53:18.936Z,0.28
2023-02-15T01:55:24.255Z,0.42
2023-02-15T01:57:29.600Z,0.42
2023-02-15T01:59:36.170Z,0.38
2023-02-15T02:01:40.218Z,0.31
2023-02-15T02:03:51.869Z,0.34
2023-02-15T02:05:54.545Z,0.36
2023-02-15T02:08:00.300Z,0.34
2023-02-15T02:10:03.738Z,0.30
2023-02-15T02:12:07.598Z,0.34
2023-02-15T02:14:10.352Z,0.41
2023-02-15T02:16:19.086Z,0.36
2023-02-15T02:18:35.932Z,0.35
2023-02-15T02:21:00.116Z,0.36
2023-02-15T02:23:17.768Z,0.25
2023-02-15T02:25:54.802Z,0.17
2023-02-15T02:28:16.015Z,0.15
2023-02-15T02:30:42.398Z,0.12
2023-02-15T02:33:10.013Z,-0.05
2023-02-15T02:35:18.616Z,-0.01
2023-02-15T02:37:26.789Z,0.16
2023-02-15T02:39:37.462Z,0.07
2023-02-15T02:41:49.652Z,0.14
2023-02-15T02:43:57.101Z,0.15
2023-02-15T02:46:04.904Z,0.20
2023-02-15T02:48:14.306Z,-0.03
2023-02-15T02:50:20.479Z,0.05
2023-02-15T02:52:48.167Z,0.14
2023-02-15T02:54:50.888Z,0.05
2023-02-15T02:56:55.222Z,0.07
2023-02-15T02:59:04.052Z,0.08
2023-02-15T03:01:11.040Z,0.05
2023-02-15T03:03:17.453Z,0.04
2023-02-15T03:05:24.100Z,0.12
2023-02-15T03:07:31.086Z,-0.05
2023-02-15T03:09:45.375Z,-0.03
2023-02-15T03:11:49.164Z,0.03
2023-02-15T03:13:52.128Z,0.05
2023-02-15T03:16:12.349Z,0.05
2023-02-15T03:18:18.925Z,0.05
2023-02-15T03:20:26.489Z,-0.07
2023-02-15T03:22:33.367Z,-0.16
2023-02-15T03:24:40.421Z,-0.12
2023-02-15T03:26:45.228Z,-0.17
2023-02-15T03:28:51.886Z,-0.07
2023-02-15T03:30:57.825Z,-0.24
2023-02-15T03:33:02.802Z,-0.25
2023-02-15T03:35:07.928Z,-0.25
2023-02-15T03:37:15.690Z,-0.25
2023-02-15T03:39:22.843Z,-0.11
2023-02-15T03:41:28.608Z,-0.29
2023-02-15T03:43:39.723Z,-0.45
2023-02-15T03:45:55.765Z,-0.32
2023-02-15T03:48:02.182Z,-0.39
2023-02-15T03:50:30.587Z,-0.34
2023-02-15T03:52:35.131Z,-0.34
2023-02-15T03:54:45.017Z,-0.53
2023-02-15T03:57:07.993Z,-0.41
2023-02-15T03:59:28.510Z,-0.55
2023-02-15T04:01:59.002Z,-0.39
2023-02-15T04:04:06.672Z,-0.55
2023-02-15T04:06:10.702Z,-0.74
2023-02-15T04:08:13.786Z,-0.62
2023-02-15T04:10:34.360Z,-0.59
2023-02-15T04:12:37.100Z,-0.68
2023-02-15T04:14:57.137Z,-0.77
2023-02-15T04:16:59.770Z,-0.75
2023-02-15T04:19:19.794Z,-0.57
2023-02-15T04:21:43.867Z,-0.69
2023-02-15T04:24:04.151Z,-0.59
2023-02-15T04:26:06.884Z,-0.62
2023-02-15T04:28:09.502Z,-0.60
2023-02-15T04:30:13.380Z,-0.68
2023-02-15T04:32:16.246Z,-0.63
2023-02-15T04:34:18.980Z,-0.66
2023-02-15T04:36:23.043Z,-0.71
2023-02-15T04:38:25.871Z,-0.73
2023-02-15T04:40:28.579Z,-0.60
2023-02-15T04:42:31.199Z,-0.78
2023-02-15T04:44:33.870Z,-0.84
2023-02-15T04:46:36.647Z,-0.81
2023-02-15T04:48:39.315Z,-0.87
2023-02-15T04:50:41.964Z,-0.89
2023-02-15T04:52:46.685Z,-0.83
2023-02-15T04:54:49.278Z,-0.83
2023-02-15T04:56:51.879Z,-0.84
2023-02-15T04:58:54.685Z,-0.74
2023-02-15T05:00:57.958Z,-0.58
2023-02-15T05:03:00.719Z,-0.70
2023-02-15T05:05:03.363Z,-0.83
2023-02-15T05:07:06.010Z,-0.81
2023-02-15T05:09:09.954Z,-0.77
2023-02-15T05:11:12.628Z,-0.70
2023-02-15T05:13:15.345Z,-0.76
2023-02-15T05:15:18.234Z,-0.81
2023-02-15T05:17:20.917Z,-0.79
2023-02-15T05:19:25.465Z,-0.80
2023-02-15T05:21:28.384Z,-0.82
2023-02-15T05:23:31.386Z,-0.86
2023-02-15T05:25:52.865Z,-0.83
2023-02-15T05:28:27.979Z,-0.72
2023-02-15T05:30:30.825Z,-0.69
2023-02-15T05:32:33.694Z,-0.75
2023-02-15T05:34:36.503Z,-0.73
2023-02-15T05:36:39.146Z,-0.83
2023-02-15T05:38:42.100Z,-0.77
2023-02-15T05:40:46.347Z,-0.68
2023-02-15T05:42:49.629Z,-0.73
2023-02-15T05:44:52.264Z,-0.79
2023-02-15T05:46:54.980Z,-0.68
2023-02-15T05:48:57.860Z,-0.76
2023-02-15T05:51:01.547Z,-0.75
2023-02-15T05:53:04.207Z,-0.84
2023-02-15T05:55:09.688Z,-0.78
2023-02-15T05:57:13.701Z,-0.63
2023-02-15T05:59:16.596Z,-0.81
2023-02-15T06:01:22.760Z,-0.91
2023-02-15T06:03:29.398Z,-0.90
2023-02-15T06:05:32.161Z,-0.95
2023-02-15T06:07:35.102Z,-0.84
2023-02-15T06:09:37.734Z,-0.85
2023-02-15T06:11:40.494Z,-0.86
2023-02-15T06:13:44.475Z,-0.89
2023-02-15T06:15:47.245Z,-0.81
2023-02-15T06:17:49.975Z,-0.85
2023-02-15T06:19:52.653Z,-0.85
2023-02-15T06:21:55.231Z,-0.85
2023-02-15T06:23:58.048Z,-0.85
2023-02-15T06:26:01.193Z,-0.66
2023-02-15T06:28:04.022Z,-0.66
2023-02-15T06:30:09.936Z,-0.89
2023-02-15T06:32:12.732Z,-0.92
2023-02-15T06:34:15.653Z,-0.95
2023-02-15T06:36:18.393Z,-0.96
2023-02-15T06:38:20.976Z,-0.93
2023-02-15T06:40:23.817Z,-0.92
2023-02-15T06:42:26.909Z,-0.87
2023-02-15T06:44:29.737Z,-0.91
2023-02-15T06:46:33.770Z,-0.70
2023-02-15T06:48:36.493Z,-0.66
2023-02-15T06:50:39.432Z,-1.01
2023-02-15T06:52:42.025Z,-0.96
2023-02-15T06:54:44.809Z,-0.91
2023-02-15T06:56:47.501Z,-0.88
2023-02-15T06:58:50.935Z,-0.80
2023-02-15T07:00:53.696Z,-0.61
2023-02-15T07:02:58.638Z,-0.77
2023-02-15T07:05:01.445Z,-0.43
2023-02-15T07:07:04.256Z,-0.55
2023-02-15T07:09:07.175Z,-0.43
2023-02-15T07:11:27.325Z,-0.44
2023-02-15T07:13:29.965Z,-0.39
2023-02-15T07:15:32.518Z,-0.36
2023-02-15T07:17:36.498Z,-0.36
2023-02-15T07:19:41.032Z,-0.09
2023-02-15T07:21:44.955Z,-0.20
2023-02-15T07:23:47.597Z,-0.07
2023-02-15T07:25:50.369Z,-0.08
2023-02-15T07:27:58.275Z,-0.06
2023-02-15T07:30:02.112Z,-0.11
2023-02-15T07:32:04.796Z,-0.23
2023-02-15T07:34:08.431Z,-0.10
2023-02-15T07:36:13.380Z,-0.12
2023-02-15T07:38:16.093Z,-0.22
2023-02-15T07:40:19.205Z,-0.25
2023-02-15T07:42:22.907Z,-0.29
2023-02-15T07:44:25.821Z,-0.03
2023-02-15T07:46:28.885Z,0.08
2023-02-15T07:48:32.003Z,0.30
2023-02-15T07:50:34.660Z,0.06
2023-02-15T07:52:38.844Z,0.00
2023-02-15T07:54:41.519Z,-0.04
2023-02-15T07:56:44.107Z,0.34
2023-02-15T07:58:52.566Z,1.11
2023-02-15T08:01:02.684Z,1.72
2023-02-15T08:03:17.463Z,2.24
2023-02-15T08:05:20.137Z,3.29
2023-02-15T08:07:22.720Z,2.77
2023-02-15T08:09:26.858Z,2.98
2023-02-15T08:11:33.484Z,3.09
2023-02-15T08:13:36.142Z,4.25
2023-02-15T08:15:38.823Z,3.59
2023-02-15T08:17:41.472Z,3.37
2023-02-15T08:19:44.145Z,3.50
2023-02-15T08:21:48.870Z,2.81
2023-02-15T08:23:51.520Z,3.62
2023-02-15T08:25:55.549Z,3.07
2023-02-15T08:27:58.153Z,4.29
2023-02-15T08:30:00.849Z,5.50
2023-02-15T08:32:05.986Z,4.10
2023-02-15T08:34:09.957Z,5.35
2023-02-15T08:36:14.778Z,5.49
2023-02-15T08:38:17.435Z,7.48
2023-02-15T08:40:20.113Z,6.74
2023-02-15T08:42:24.317Z,6.75
2023-02-15T08:44:27.125Z,8.39
2023-02-15T08:46:31.499Z,6.56
2023-02-15T08:48:34.463Z,8.44
2023-02-15T08:50:37.101Z,9.04
2023-02-15T08:52:39.728Z,8.87
2023-02-15T08:54:42.477Z,8.38
2023-02-15T08:56:46.110Z,7.37
2023-02-15T08:58:50.789Z,7.16
2023-02-15T09:00:53.641Z,6.12
2023-02-15T09:02:56.414Z,7.52
2023-02-15T09:04:59.052Z,10.57
2023-02-15T09:07:01.736Z,11.25
2023-02-15T09:09:04.623Z,11.64
2023-02-15T09:11:12.099Z,10.83
2023-02-15T09:13:15.150Z,10.89
2023-02-15T09:15:19.179Z,11.99
2023-02-15T09:17:21.868Z,14.89
2023-02-15T09:19:25.607Z,15.00
2023-02-15T09:21:28.548Z,12.99
2023-02-15T09:23:31.201Z,10.12
2023-02-15T09:25:33.766Z,11.91
2023-02-15T09:27:37.450Z,12.52
2023-02-15T09:29:40.123Z,11.14
2023-02-15T09:31:46.031Z,13.47
2023-02-15T09:33:50.064Z,12.17
2023-02-15T09:35:52.752Z,12.27
2023-02-15T09:37:55.445Z,12.99
2023-02-15T09:39:58.316Z,13.74
2023-02-15T09:42:34.120Z,14.34
2023-02-15T09:44:55.918Z,14.62
2023-02-15T09:47:14.661Z,13.04
2023-02-15T09:49:29.520Z,11.29
2023-02-15T09:51:51.032Z,12.59
2023-02-15T09:54:09.342Z,13.39
2023-02-15T09:56:21.210Z,15.50
2023-02-15T09:58:37.394Z,13.49
2023-02-15T10:00:47.966Z,12.14
2023-02-15T10:03:13.792Z,10.29
2023-02-15T10:05:27.340Z,13.92
2023-02-15T10:07:48.005Z,14.78
2023-02-15T10:10:05.204Z,10.92
2023-02-15T10:12:25.854Z,12.37
2023-02-15T10:14:52.440Z,11.55
2023-02-15T10:17:03.322Z,11.19
2023-02-15T10:19:18.625Z,11.77
2023-02-15T10:21:34.914Z,12.86
2023-02-15T10:24:10.151Z,9.81
2023-02-15T10:26:19.567Z,10.30
2023-02-15T10:28:28.785Z,11.41
2023-02-15T10:30:43.512Z,9.06
2023-02-15T10:32:56.522Z,9.31
2023-02-15T10:35:04.226Z,9.96
2023-02-15T10:37:28.764Z,9.37
2023-02-15T10:39:41.010Z,9.43
2023-02-15T10:41:49.885Z,8.42
2023-02-15T10:44:06.596Z,9.02
2023-02-15T10:46:17.141Z,9.79
2023-02-15T10:48:37.196Z,10.41
2023-02-15T10:50:49.469Z,11.08
2023-02-15T10:53:05.287Z,10.10
2023-02-15T10:55:16.757Z,9.36
2023-02-15T10:57:28.698Z,9.64
2023-02-15T11:00:00.775Z,9.32
2023-02-15T11:02:12.945Z,8.31
2023-02-15T11:04:42.195Z,8.66
2023-02-15T11:06:53.185Z,8.91
2023-02-15T11:09:01.770Z,8.66
2023-02-15T11:11:08.431Z,8.13
2023-02-15T11:13:15.527Z,8.63
2023-02-15T11:15:26.720Z,8.38
2023-02-15T11:17:39.559Z,9.05
2023-02-15T11:19:50.321Z,9.08
2023-02-15T11:21:57.770Z,8.95
2023-02-15T11:24:02.164Z,9.13
2023-02-15T11:26:08.429Z,8.91
2023-02-15T11:28:20.668Z,9.09
2023-02-15T11:30:26.297Z,8.61
2023-02-15T11:32:31.378Z,8.59
2023-02-15T11:34:37.833Z,8.98
2023-02-15T11:36:43.136Z,8.93
2023-02-15T11:38:51.654Z,9.15
2023-02-15T11:41:01.102Z,8.98
2023-02-15T11:43:08.454Z,9.30
2023-02-15T11:45:24.272Z,9.84
2023-02-15T11:47:27.297Z,9.78
2023-02-15T11:49:33.319Z,9.69
2023-02-15T11:51:37.469Z,9.65
2023-02-15T11:53:40.974Z,9.01
2023-02-15T11:55:46.472Z,9.73
2023-02-15T11:57:54.761Z,9.40
2023-02-15T12:00:05.165Z,9.08
2023-02-15T12:02:18.427Z,8.66
2023-02-15T12:04:27.170Z,8.92
2023-02-15T12:06:34.201Z,9.04
2023-02-15T12:08:43.902Z,9.02
2023-02-15T12:10:59.172Z,8.56
2023-02-15T12:13:12.900Z,8.78
2023-02-15T12:15:16.182Z,8.62
2023-02-15T12:17:20.085Z,8.88
2023-02-15T12:19:31.797Z,9.00
2023-02-15T12:21:41.723Z,8.69
2023-02-15T12:23:50.126Z,8.63
2023-02-15T12:25:59.247Z,8.89
2023-02-15T12:28:01.991Z,8.91
2023-02-15T12:30:08.331Z,9.16
2023-02-15T12:32:19.178Z,8.91
2023-02-15T12:34:26.270Z,9.18
2023-02-15T12:36:32.669Z,9.48
2023-02-15T12:38:36.786Z,9.19
2023-02-15T12:40:41.125Z,9.23
2023-02-15T12:42:46.641Z,9.13
2023-02-15T12:44:58.403Z,9.08
2023-02-15T12:47:04.629Z,9.29
2023-02-15T12:49:10.186Z,9.87
2023-02-15T12:51:17.629Z,9.81
2023-02-15T12:53:24.360Z,10.28
2023-02-15T12:55:30.787Z,10.19
2023-02-15T12:57:34.740Z,10.14
2023-02-15T12:59:39.541Z,10.91
2023-02-15T13:01:46.015Z,10.43
2023-02-15T13:04:00.918Z,10.55
2023-02-15T13:06:08.218Z,11.06
2023-02-15T13:08:15.780Z,10.63
2023-02-15T13:10:28.458Z,10.45
2023-02-15T13:12:34.607Z,10.59
2023-02-15T13:14:41.307Z,11.04
2023-02-15T13:16:46.702Z,10.86
2023-02-15T13:18:54.152Z,10.07
2023-02-15T13:20:58.061Z,11.14
2023-02-15T13:23:06.261Z,11.19
2023-02-15T13:25:15.184Z,11.33
2023-02-15T13:27:20.743Z,10.93
2023-02-15T13:29:26.704Z,11.24
2023-02-15T13:31:33.624Z,10.88
2023-02-15T13:33:39.180Z,11.06
2023-02-15T13:35:48.249Z,10.48
2023-02-15T13:38:08.625Z,10.70
2023-02-15T13:40:17.555Z,10.43
2023-02-15T13:42:24.555Z,10.81
2023-02-15T13:44:49.432Z,10.06
2023-02-15T13:47:06.824Z,10.36
2023-02-15T13:49:21.428Z,10.69
2023-02-15T13:51:33.344Z,10.43
2023-02-15T13:54:13.668Z,10.81
2023-02-15T13:56:25.692Z,10.51
2023-02-15T13:59:06.918Z,10.85
2023-02-15T14:01:15.811Z,11.18
2023-02-15T14:03:57.605Z,11.00
2023-02-15T14:06:37.069Z,10.92
2023-02-15T14:08:56.468Z,11.15
2023-02-15T14:11:05.198Z,10.65
2023-02-15T14:13:40.516Z,10.98
2023-02-15T14:15:49.010Z,11.04
2023-02-15T14:18:02.061Z,11.29
2023-02-15T14:20:18.625Z,11.19
2023-02-15T14:22:30.975Z,11.53
2023-02-15T14:24:44.225Z,11.19
2023-02-15T14:26:54.974Z,11.37
2023-02-15T14:29:06.842Z,11.51
2023-02-15T14:31:14.055Z,11.04
2023-02-15T14:33:34.645Z,11.41
2023-02-15T14:35:39.189Z,11.49
2023-02-15T14:37:48.542Z,11.51
2023-02-15T14:40:17.540Z,11.36
2023-02-15T14:42:27.562Z,11.41
2023-02-15T14:44:36.582Z,11.42
2023-02-15T14:46:43.831Z,11.58
2023-02-15T14:48:50.245Z,11.42
2023-02-15T14:50:54.522Z,11.39
2023-02-15T14:53:18.797Z,11.45
2023-02-15T14:55:37.042Z,11.39
2023-02-15T14:57:39.651Z,11.35
2023-02-15T14:59:46.116Z,11.13
2023-02-15T15:02:00.173Z,11.07
2023-02-15T15:04:08.464Z,11.29
2023-02-15T15:06:28.375Z,11.06
2023-02-15T15:08:36.380Z,10.95
2023-02-15T15:10:44.969Z,10.89
2023-02-15T15:12:49.105Z,10.71
2023-02-15T15:14:52.953Z,10.59
2023-02-15T15:16:55.666Z,10.35
2023-02-15T15:18:59.409Z,10.34
2023-02-15T15:21:02.357Z,10.35
2023-02-15T15:23:40.987Z,10.34
2023-02-15T15:25:46.870Z,10.22
2023-02-15T15:27:53.615Z,10.24
2023-02-15T15:29:56.286Z,10.19
2023-02-15T15:32:03.412Z,10.05
2023-02-15T15:35:01.707Z,10.13
2023-02-15T15:37:43.819Z,9.92
2023-02-15T15:40:20.873Z,10.01
2023-02-15T15:42:34.568Z,9.97
2023-02-15T15:45:30.729Z,9.90
2023-02-15T15:47:51.273Z,9.81
2023-02-15T15:49:58.691Z,9.71
2023-02-15T15:52:03.969Z,9.71
2023-02-15T15:54:06.715Z,9.65
2023-02-15T15:56:14.512Z,9.51
2023-02-15T15:58:21.185Z,9.53
2023-02-15T16:00:36.542Z,9.31
2023-02-15T16:02:51.940Z,9.26
2023-02-15T16:04:54.605Z,9.08
2023-02-15T16:06:57.940Z,9.11
2023-02-15T16:09:12.394Z,9.09
2023-02-15T16:11:20.118Z,9.03
2023-02-15T16:13:24.556Z,8.92
2023-02-15T16:15:32.949Z,8.86
2023-02-15T16:17:35.644Z,8.83
2023-02-15T16:19:41.830Z,8.89
2023-02-15T16:21:44.628Z,8.86
2023-02-15T16:24:08.866Z,8.81
2023-02-15T16:26:20.208Z,8.69
2023-02-15T16:28:24.318Z,8.60
2023-02-15T16:30:32.162Z,8.58
2023-02-15T16:32:37.319Z,8.50
2023-02-15T16:34:40.059Z,8.46
2023-02-15T16:36:42.788Z,8.38
2023-02-15T16:39:10.547Z,8.20
2023-02-15T16:41:17.460Z,8.16
2023-02-15T16:43:26.768Z,8.19
2023-02-15T16:45:31.683Z,8.04
2023-02-15T16:47:38.264Z,7.87
2023-02-15T16:49:47.760Z,7.86
2023-02-15T16:51:58.654Z,8.05
2023-02-15T16:54:07.943Z,8.24
2023-02-15T16:56:11.832Z,8.31
2023-02-15T16:58:18.167Z,8.41
2023-02-15T17:00:26.993Z,8.14
2023-02-15T17:02:54.446Z,7.94
2023-02-15T17:05:16.633Z,8.02
2023-02-15T17:07:21.053Z,7.98
2023-02-15T17:09:26.436Z,7.73
2023-02-15T17:11:36.557Z,7.76
2023-02-15T17:13:39.725Z,7.87
2023-02-15T17:15:45.566Z,8.09
2023-02-15T17:17:48.503Z,8.16
2023-02-15T17:19:55.220Z,8.14
2023-02-15T17:21:58.751Z,8.31
2023-02-15T17:24:05.123Z,7.94
2023-02-15T17:26:16.391Z,8.07
2023-02-15T17:28:21.580Z,8.13
2023-02-15T17:30:29.931Z,8.25
2023-02-15T17:32:37.180Z,8.35
2023-02-15T17:34:46.712Z,8.14
2023-02-15T17:36:59.514Z,7.51
2023-02-15T17:39:07.194Z,7.35
2023-02-15T17:41:10.698Z,7.44
2023-02-15T17:43:13.331Z,7.80
2023-02-15T17:45:16.336Z,7.39
2023-02-15T17:47:21.338Z,7.72
2023-02-15T17:49:29.335Z,7.67
2023-02-15T17:51:33.142Z,7.33
2023-02-15T17:53:36.777Z,7.46
2023-02-15T17:55:42.947Z,7.28
2023-02-15T17:57:45.541Z,7.57
2023-02-15T18:00:05.961Z,7.36
2023-02-15T18:02:30.313Z,7.17
2023-02-15T18:04:54.923Z,7.57
2023-02-15T18:07:15.109Z,7.12
2023-02-15T18:09:39.103Z,7.39
2023-02-15T18:11:42.459Z,6.96
2023-02-15T18:13:45.165Z,6.99
2023-02-15T18:15:47.737Z,7.45
2023-02-15T18:17:50.475Z,7.41
2023-02-15T18:19:55.222Z,7.33
2023-02-15T18:21:58.043Z,7.33
2023-02-15T18:24:01.193Z,7.50
2023-02-15T18:26:04.324Z,7.26
2023-02-15T18:28:07.434Z,7.22
2023-02-15T18:30:15.840Z,7.28
2023-02-15T18:32:22.912Z,7.25
2023-02-15T18:34:29.796Z,7.32
2023-02-15T18:36:34.680Z,7.43
2023-02-15T18:38:37.350Z,7.30
2023-02-15T18:40:39.992Z,7.24
2023-02-15T18:42:47.083Z,7.21
2023-02-15T18:44:49.835Z,7.13
2023-02-15T18:46:52.472Z,7.08
2023-02-15T18:48:55.116Z,7.02
2023-02-15T18:50:57.848Z,7.01
2023-02-15T18:53:04.295Z,7.08
2023-02-15T18:55:17.560Z,7.30
2023-02-15T18:57:20.366Z,7.26
2023-02-15T18:59:23.636Z,7.26
2023-02-15T19:01:26.957Z,7.56
2023-02-15T19:03:29.793Z,7.39
2023-02-15T19:05:33.849Z,7.27
2023-02-15T19:07:37.955Z,7.25
2023-02-15T19:09:42.577Z,7.12
2023-02-15T19:11:50.466Z,6.91
2023-02-15T19:13:53.777Z,6.95
2023-02-15T19:15:57.029Z,6.91
2023-02-15T19:17:59.677Z,6.93
2023-02-15T19:20:02.357Z,6.83
2023-02-15T19:22:05.492Z,6.81
2023-02-15T19:24:13.463Z,6.78
2023-02-15T19:26:17.384Z,6.76
2023-02-15T19:28:26.056Z,6.74
2023-02-15T19:30:30.881Z,6.71
2023-02-15T19:32:33.673Z,6.63
2023-02-15T19:34:36.485Z,6.56
2023-02-15T19:36:39.268Z,6.52
2023-02-15T19:38:42.777Z,6.48
2023-02-15T19:40:46.046Z,6.44
2023-02-15T19:42:50.727Z,6.40
2023-02-15T19:44:54.583Z,6.43
2023-02-15T19:46:57.758Z,6.42
2023-02-15T19:49:00.324Z,6.50
2023-02-15T19:51:03.673Z,6.58
2023-02-15T19:53:06.644Z,6.52
2023-02-15T19:55:21.483Z,6.48
2023-02-15T19:57:24.997Z,6.56
2023-02-15T19:59:30.702Z,6.51
2023-02-15T20:01:33.501Z,6.68
2023-02-15T20:03:36.786Z,6.69
2023-02-15T20:05:40.120Z,6.68
2023-02-15T20:07:45.696Z,6.82
2023-02-15T20:09:48.445Z,6.69
2023-02-15T20:11:51.766Z,6.72
2023-02-15T20:13:54.551Z,6.78
2023-02-15T20:16:01.039Z,6.90
2023-02-15T20:18:05.048Z,6.86
2023-02-15T20:20:09.146Z,6.66
2023-02-15T20:22:22.369Z,6.60
2023-02-15T20:24:28.650Z,6.52
2023-02-15T20:26:32.533Z,6.37
2023-02-15T20:28:35.150Z,6.36
2023-02-15T20:30:37.857Z,6.37
2023-02-15T20:32:41.850Z,6.31
2023-02-15T20:34:44.478Z,6.28
2023-02-15T20:36:47.121Z,6.15
2023-02-15T20:38:50.092Z,6.25
2023-02-15T20:41:11.364Z,6.23
2023-02-15T20:43:16.094Z,6.07
2023-02-15T20:45:22.039Z,6.10
2023-02-15T20:47:26.820Z,6.01
2023-02-15T20:49:31.701Z,6.14
2023-02-15T20:51:34.421Z,5.93
2023-02-15T20:53:37.109Z,5.97
2023-02-15T20:55:39.876Z,5.76
2023-02-15T20:57:42.559Z,5.76
2023-02-15T20:59:45.210Z,5.73
2023-02-15T21:01:48.163Z,5.56
2023-02-15T21:03:53.981Z,5.38
2023-02-15T21:06:00.625Z,5.36
2023-02-15T21:08:03.405Z,5.42
2023-02-15T21:10:07.382Z,5.45
2023-02-15T21:12:13.476Z,5.46
2023-02-15T21:14:20.397Z,5.38
2023-02-15T21:16:23.112Z,5.11
2023-02-15T21:18:27.930Z,5.14
2023-02-15T21:20:33.595Z,5.11
2023-02-15T21:22:40.135Z,5.15
2023-02-15T21:24:49.127Z,5.13
2023-02-15T21:26:52.084Z,5.12
2023-02-15T21:28:55.118Z,5.08
2023-02-15T21:30:59.316Z,5.02
2023-02-15T21:33:02.219Z,5.08
2023-02-15T21:35:05.477Z,5.07
2023-02-15T21:37:27.463Z,5.03
2023-02-15T21:39:36.683Z,5.14
2023-02-15T21:41:56.046Z,5.09
2023-02-15T21:44:16.513Z,5.10
2023-02-15T21:46:38.567Z,5.06
2023-02-15T21:48:41.319Z,4.96
2023-02-15T21:51:02.183Z,4.91
2023-02-15T21:53:06.377Z,4.93
2023-02-15T21:55:14.769Z,4.98
2023-02-15T21:57:21.055Z,5.03
2023-02-15T21:59:24.665Z,5.00
2023-02-15T22:01:28.929Z,4.98
2023-02-15T22:03:34.152Z,4.96
2023-02-15T22:05:36.793Z,5.11
2023-02-15T22:07:39.505Z,5.17
2023-02-15T22:09:42.094Z,5.28
2023-02-15T22:11:46.371Z,5.04
2023-02-15T22:13:50.187Z,4.76
2023-02-15T22:15:52.922Z,4.79
2023-02-15T22:17:55.953Z,4.79
2023-02-15T22:19:59.160Z,5.10
2023-02-15T22:22:01.774Z,4.90
2023-02-15T22:24:04.723Z,4.81
2023-02-15T22:26:09.315Z,5.02
2023-02-15T22:28:16.575Z,4.95
2023-02-15T22:30:25.369Z,5.05
2023-02-15T22:32:28.386Z,5.07
2023-02-15T22:34:33.327Z,4.95
2023-02-15T22:36:35.968Z,4.92
2023-02-15T22:38:38.603Z,4.99
2023-02-15T22:40:41.569Z,4.88
2023-02-15T22:42:47.343Z,5.04
2023-02-15T22:44:51.642Z,5.02
2023-02-15T22:46:54.534Z,5.03
2023-02-15T22:48:57.150Z,4.97
2023-02-15T22:50:59.799Z,4.73
2023-02-15T22:53:03.604Z,4.89
2023-02-15T22:55:07.053Z,5.37
2023-02-15T22:57:16.885Z,5.55
2023-02-15T22:59:23.740Z,5.29
2023-02-15T23:01:32.588Z,5.58
2023-02-15T23:03:35.229Z,5.57
2023-02-15T23:05:37.991Z,5.58
2023-02-15T23:07:40.812Z,5.71
2023-02-15T23:09:43.781Z,5.59
2023-02-15T23:11:46.899Z,5.53
2023-02-15T23:13:50.282Z,5.42
2023-02-15T23:15:56.481Z,5.50
2023-02-15T23:18:05.845Z,5.46
2023-02-15T23:20:14.598Z,5.33
2023-02-15T23:22:18.411Z,5.33
2023-02-15T23:24:23.477Z,5.20
2023-02-15T23:26:28.658Z,5.19
2023-02-15T23:28:34.672Z,5.33
2023-02-15T23:30:37.389Z,5.45
2023-02-15T23:32:40.348Z,5.10
2023-02-15T23:34:44.832Z,5.16
2023-02-15T23:36:48.179Z,5.05
2023-02-15T23:38:50.893Z,5.14
2023-02-15T23:41:17.358Z,5.06
2023-02-15T23:43:22.958Z,5.03
2023-02-15T23:45:26.526Z,4.99
2023-02-15T23:47:44.746Z,4.98
2023-02-15T23:49:48.883Z,4.76
2023-02-15T23:51:53.500Z,4.67
2023-02-15T23:53:56.321Z,4.75
2023-02-15T23:55:59.710Z,4.51
2023-02-15T23:58:03.071Z,4.59
